Time;durP1;ratioP1;P1;durP2;ratioP2;P2;SDS_P1;SDS_P2;PMS_P1;PMS_P2;Temp;Humidity;BMP_temperature;BMP_pressure;BME280_temperature;BME280_humidity;BME280_pressure;Samples;Min_cycle;Max_cycle;Signal;HPM_P1;HPM_P2
2022/01/14 00:01:59;;;;;;;20.75;10.13;;;5.60;99.90;;;;;;5038372;28;20047;-79
2022/01/14 00:04:25;;;;;;;28.08;8.68;;;5.60;99.90;;;;;;5054962;28;20044;-81
2022/01/14 00:06:51;;;;;;;29.23;9.75;;;5.80;99.90;;;;;;5055103;28;20048;-82
2022/01/14 00:09:17;;;;;;;12.95;6.63;;;5.50;99.90;;;;;;5071517;28;20048;-81
2022/01/14 00:11:56;;;;;;;25.88;10.10;;;5.60;99.90;;;;;;5054728;28;20121;-79
2022/01/14 00:14:42;;;;;;;30.52;10.10;;;5.60;99.90;;;;;;5055217;28;20495;-79
2022/01/14 00:17:10;;;;;;;14.93;7.40;;;5.50;99.90;;;;;;5071458;28;20083;-80
2022/01/14 00:19:36;;;;;;;17.27;7.82;;;5.50;99.90;;;;;;5071426;28;20098;-79
2022/01/14 00:22:09;;;;;;;16.05;8.65;;;5.50;99.90;;;;;;5054982;28;20684;-79
2022/01/14 00:33:00;;;;;;;25.50;8.25;;;5.50;99.90;;;;;;5075704;28;20446;-81
2022/01/14 00:35:26;;;;;;;21.40;8.90;;;5.50;99.90;;;;;;5060445;28;20045;-81
2022/01/14 00:37:52;;;;;;;21.05;9.77;;;5.60;99.90;;;;;;5075521;28;20052;-81
2022/01/14 00:40:18;;;;;;;15.85;6.15;;;5.50;99.90;;;;;;5075092;28;20040;-79
2022/01/14 00:42:45;;;;;;;19.20;9.48;;;5.50;99.90;;;;;;5075203;28;20045;-80
2022/01/14 00:45:11;;;;;;;12.77;6.47;;;5.40;99.90;;;;;;5075357;28;20044;-80
2022/01/14 00:47:37;;;;;;;12.27;5.78;;;5.40;99.90;;;;;;5058564;28;20055;-80
2022/01/14 00:50:14;;;;;;;28.77;10.20;;;5.30;99.90;;;;;;5058488;28;20044;-80
2022/01/14 00:52:42;;;;;;;14.93;7.15;;;5.10;99.90;;;;;;5058415;28;20048;-81
2022/01/14 00:55:09;;;;;;;20.05;8.65;;;5.10;99.90;;;;;;5058424;28;20045;-81
2022/01/14 01:00:29;;;;;;;21.70;8.35;;;4.80;99.90;;;;;;5060806;28;20044;-79
2022/01/14 01:02:54;;;;;;;18.90;8.77;;;4.90;99.90;;;;;;5074782;28;20048;-81
2022/01/14 01:05:20;;;;;;;20.98;9.60;;;5.00;99.90;;;;;;5057996;28;20552;-80
2022/01/14 01:07:56;;;;;;;18.35;7.05;;;5.10;99.90;;;;;;5075218;28;20436;-81
2022/01/14 01:10:23;;;;;;;18.85;8.10;;;5.20;99.90;;;;;;5074587;28;20585;-81
2022/01/14 01:12:56;;;;;;;16.40;6.53;;;5.20;99.90;;;;;;5058196;28;20051;-79
2022/01/14 01:15:22;;;;;;;16.88;6.10;;;5.20;99.90;;;;;;5057848;28;20040;-79
2022/01/14 01:17:49;;;;;;;17.33;7.97;;;5.10;99.90;;;;;;5074497;28;20099;-81
2022/01/14 01:20:20;;;;;;;36.25;13.15;;;5.10;99.90;;;;;;5057993;28;20043;-81
2022/01/14 01:22:48;;;;;;;31.83;13.80;;;5.10;99.90;;;;;;5074324;28;20084;-80
2022/01/14 01:25:17;;;;;;;32.90;13.20;;;5.00;99.90;;;;;;5058133;28;20549;-79
2022/01/14 01:27:44;;;;;;;35.13;13.02;;;5.10;99.90;;;;;;5057942;28;20040;-79
2022/01/14 01:32:56;;;;;;;31.88;14.00;;;5.20;99.90;;;;;;5074558;28;20098;-81
2022/01/14 01:35:22;;;;;;;36.70;11.60;;;5.30;99.90;;;;;;5074384;28;20467;-80
2022/01/14 01:37:48;;;;;;;30.58;13.25;;;5.30;99.90;;;;;;5073492;28;20076;-81
2022/01/14 01:40:14;;;;;;;43.08;14.80;;;5.30;99.90;;;;;;5074190;28;20040;-80
2022/01/14 01:42:44;;;;;;;20.77;10.73;;;5.40;99.90;;;;;;5057410;28;20044;-79
2022/01/14 01:45:12;;;;;;;30.80;14.27;;;5.60;99.90;;;;;;5074036;28;20067;-79
2022/01/14 01:47:39;;;;;;;23.10;12.45;;;5.40;99.90;;;;;;5057339;28;20044;-79
2022/01/14 01:50:10;;;;;;;35.47;13.88;;;5.40;99.90;;;;;;5057368;28;20048;-81
2022/01/14 01:52:35;;;;;;;30.05;13.40;;;5.40;99.90;;;;;;5074182;28;20475;-79
2022/01/14 01:55:01;;;;;;;31.27;14.80;;;5.40;99.90;;;;;;5057326;28;20075;-80
2022/01/14 01:57:27;;;;;;;27.08;12.27;;;5.50;99.90;;;;;;5073784;28;20067;-81
2022/01/14 01:59:53;;;;;;;32.22;12.38;;;5.50;99.90;;;;;;5040429;28;20419;-79
2022/01/14 02:02:18;;;;;;;42.30;15.10;;;5.40;99.90;;;;;;5073728;28;20047;-79
2022/01/14 02:04:44;;;;;;;25.33;10.55;;;5.40;99.90;;;;;;5073772;28;20041;-82
2022/01/14 02:07:10;;;;;;;24.10;10.38;;;5.50;99.90;;;;;;5057117;28;20056;-81
2022/01/14 02:09:36;;;;;;;24.27;13.73;;;5.60;99.90;;;;;;5023959;28;20376;-80
2022/01/14 02:12:08;;;;;;;35.63;11.88;;;5.60;99.90;;;;;;5057109;28;20051;-81
2022/01/14 02:19:31;;;;;;;33.20;16.35;;;5.70;99.90;;;;;;5073703;28;20094;-81
2022/01/14 02:22:11;;;;;;;32.15;15.52;;;5.60;99.90;;;;;;5073431;28;20056;-81
2022/01/14 02:27:12;;;;;;;31.85;14.43;;;5.80;99.90;;;;;;5073517;28;20110;-81
2022/01/14 02:29:38;;;;;;;30.60;14.77;;;5.60;99.90;;;;;;5073277;28;20083;-80
2022/01/14 02:32:04;;;;;;;28.55;12.93;;;5.60;99.90;;;;;;5073162;28;20090;-81
2022/01/14 02:34:30;;;;;;;27.05;12.18;;;5.60;99.90;;;;;;5073386;28;20367;-81
2022/01/14 02:36:57;;;;;;;22.88;13.70;;;5.70;99.90;;;;;;5057017;28;20483;-81
2022/01/14 02:39:23;;;;;;;23.67;12.07;;;5.60;99.90;;;;;;5056417;28;20090;-80
2022/01/14 02:41:51;;;;;;;20.73;10.77;;;5.80;99.90;;;;;;5072995;28;20077;-79
2022/01/14 02:44:24;;;;;;;23.90;11.18;;;5.60;99.90;;;;;;5072898;28;20094;-81
2022/01/14 02:46:54;;;;;;;22.95;13.60;;;5.60;99.90;;;;;;5056685;28;20490;-81
2022/01/14 02:49:22;;;;;;;24.67;11.60;;;5.70;99.90;;;;;;5072001;28;20437;-79
2022/01/14 02:51:48;;;;;;;25.65;15.20;;;5.60;99.90;;;;;;5072734;28;20044;-80
2022/01/14 02:54:20;;;;;;;24.63;11.98;;;5.70;99.90;;;;;;5056145;28;20062;-79
2022/01/14 02:56:48;;;;;;;39.08;15.27;;;5.60;99.90;;;;;;5073048;28;20496;-79
2022/01/14 02:59:16;;;;;;;43.22;18.67;;;5.60;99.90;;;;;;5072886;28;20090;-80
2022/01/14 03:01:44;;;;;;;40.63;17.65;;;5.60;99.90;;;;;;5039391;28;20040;-79
2022/01/14 03:04:13;;;;;;;28.35;14.48;;;5.60;99.90;;;;;;5055869;28;20052;-79
2022/01/14 03:06:40;;;;;;;25.50;14.23;;;5.60;99.90;;;;;;5056083;28;20049;-80
2022/01/14 03:09:05;;;;;;;39.10;17.58;;;5.70;99.90;;;;;;5072415;28;20341;-81
2022/01/14 03:11:39;;;;;;;38.92;18.33;;;5.70;99.90;;;;;;5072358;28;20048;-81
2022/01/14 03:14:05;;;;;;;36.80;18.05;;;5.70;99.90;;;;;;5072447;28;20135;-81
2022/01/14 03:16:39;;;;;;;16.02;7.53;;;5.70;99.90;;;;;;5055674;28;20045;-79
2022/01/14 03:19:13;;;;;;;23.58;11.45;;;5.70;99.90;;;;;;5072264;28;20152;-81
2022/01/14 03:21:41;;;;;;;33.38;16.20;;;5.90;99.90;;;;;;5055473;28;20060;-80
2022/01/14 03:26:54;;;;;;;39.78;18.65;;;5.90;99.90;;;;;;5041446;28;20044;-79
2022/01/14 03:29:20;;;;;;;35.65;17.30;;;5.80;99.90;;;;;;5038665;28;20037;-81
2022/01/14 03:31:47;;;;;;;32.25;16.15;;;5.80;99.90;;;;;;5072317;28;20134;-81
2022/01/14 03:34:13;;;;;;;33.75;15.85;;;5.90;99.90;;;;;;5055450;28;20052;-80
2022/01/14 03:36:39;;;;;;;33.50;16.55;;;5.90;99.90;;;;;;5071924;28;20078;-81
2022/01/14 03:39:05;;;;;;;34.38;17.80;;;5.90;99.90;;;;;;5071910;28;20498;-79
2022/01/14 03:41:31;;;;;;;29.45;11.82;;;5.80;99.90;;;;;;5055498;28;20487;-79
2022/01/14 03:43:57;;;;;;;36.28;17.58;;;5.80;99.90;;;;;;5055335;28;20040;-79
2022/01/14 03:46:22;;;;;;;30.25;16.17;;;5.80;99.90;;;;;;5071813;28;20119;-79
2022/01/14 03:48:48;;;;;;;35.78;18.55;;;5.90;99.90;;;;;;5038335;28;20048;-80
2022/01/14 03:51:14;;;;;;;30.90;15.40;;;5.80;99.90;;;;;;5055100;28;20582;-79
2022/01/14 03:53:40;;;;;;;27.80;13.52;;;5.80;99.90;;;;;;5071715;28;20051;-79
2022/01/14 03:56:05;;;;;;;15.73;8.00;;;5.90;99.90;;;;;;5022161;28;20045;-82
2022/01/14 03:58:31;;;;;;;33.13;16.13;;;5.80;99.90;;;;;;5038311;28;20049;-79
2022/01/14 04:00:57;;;;;;;37.40;15.60;;;5.80;99.90;;;;;;5054635;28;20197;-79
2022/01/14 04:03:23;;;;;;;33.42;16.20;;;5.90;99.90;;;;;;5054871;28;20048;-79
2022/01/14 04:05:49;;;;;;;33.20;17.20;;;6.00;99.90;;;;;;5054937;28;20051;-80
2022/01/14 04:08:15;;;;;;;30.77;14.95;;;5.90;99.90;;;;;;5071786;28;20399;-81
2022/01/14 04:10:41;;;;;;;21.85;13.02;;;5.80;99.90;;;;;;5071434;28;20105;-81
2022/01/14 04:13:15;;;;;;;22.85;10.55;;;5.90;99.90;;;;;;5071436;28;20082;-79
2022/01/14 04:15:43;;;;;;;26.00;12.60;;;5.80;99.90;;;;;;5071900;28;20487;-79
2022/01/14 04:18:20;;;;;;;37.42;16.98;;;5.80;99.90;;;;;;5055345;28;20045;-81
2022/01/14 04:20:47;;;;;;;27.25;10.80;;;5.80;99.90;;;;;;5071449;28;20037;-81
2022/01/14 04:23:18;;;;;;;29.98;12.95;;;5.80;99.90;;;;;;5038305;28;20135;-79
2022/01/14 04:25:44;;;;;;;17.77;10.13;;;5.80;99.90;;;;;;5071340;28;20045;-81
2022/01/14 04:28:11;;;;;;;27.10;13.43;;;5.80;99.90;;;;;;5071710;28;20391;-81
2022/01/14 04:30:37;;;;;;;29.20;13.90;;;5.60;99.90;;;;;;5071252;28;20325;-80
2022/01/14 04:33:04;;;;;;;23.55;13.20;;;5.60;99.90;;;;;;5054602;28;20048;-79
2022/01/14 04:35:30;;;;;;;25.85;13.07;;;5.60;99.90;;;;;;5071236;28;20037;-81
2022/01/14 04:37:57;;;;;;;29.70;13.98;;;5.50;99.90;;;;;;5071549;28;20080;-81
2022/01/14 04:40:23;;;;;;;31.17;14.65;;;5.50;99.90;;;;;;5054543;28;20127;-81
2022/01/14 04:42:49;;;;;;;28.63;15.52;;;5.40;99.90;;;;;;5071292;28;20127;-81
2022/01/14 04:45:28;;;;;;;34.70;17.52;;;5.30;99.90;;;;;;5071398;28;20132;-81
2022/01/14 04:47:55;;;;;;;29.30;15.23;;;5.30;99.90;;;;;;5071386;28;20526;-82
2022/01/14 04:50:23;;;;;;;30.92;14.77;;;5.30;99.90;;;;;;5054491;28;20090;-79
2022/01/14 04:52:49;;;;;;;24.70;12.13;;;5.30;99.90;;;;;;5071189;28;20043;-81
2022/01/14 04:55:18;;;;;;;21.38;12.50;;;5.30;99.90;;;;;;5071004;28;20080;-80
2022/01/14 04:57:44;;;;;;;31.58;13.98;;;5.30;99.90;;;;;;5071450;28;20520;-80
2022/01/14 05:00:14;;;;;;;27.42;11.70;;;5.40;99.90;;;;;;5054811;28;20620;-79
2022/01/14 05:02:40;;;;;;;39.05;13.75;;;5.30;99.90;;;;;;5071046;28;20120;-81
2022/01/14 05:05:07;;;;;;;30.85;13.45;;;5.30;99.90;;;;;;5054430;28;20186;-81
2022/01/14 05:07:34;;;;;;;27.13;13.73;;;5.30;99.90;;;;;;5071016;28;20123;-81
2022/01/14 05:12:34;;;;;;;13.07;6.43;;;5.30;99.90;;;;;;5055590;28;20044;-81
2022/01/14 05:15:01;;;;;;;19.10;10.90;;;5.40;99.90;;;;;;5058165;28;20099;-81
2022/01/14 05:17:27;;;;;;;20.35;9.27;;;5.40;99.90;;;;;;5058419;28;20056;-79
2022/01/14 05:19:54;;;;;;;32.00;15.77;;;5.40;99.90;;;;;;5057985;28;20051;-79
2022/01/14 05:22:21;;;;;;;26.48;11.20;;;5.40;99.90;;;;;;5074421;28;20071;-81
2022/01/14 05:24:47;;;;;;;24.70;14.52;;;5.40;99.90;;;;;;5041317;28;20083;-81
2022/01/14 05:27:13;;;;;;;25.90;12.75;;;5.40;99.90;;;;;;5041121;28;20044;-80
2022/01/14 05:29:39;;;;;;;30.63;17.90;;;5.40;99.90;;;;;;5074345;28;20071;-81
2022/01/14 05:32:09;;;;;;;34.58;15.88;;;5.40;99.90;;;;;;5074347;28;20041;-81
2022/01/14 05:34:36;;;;;;;26.35;14.73;;;5.40;99.90;;;;;;5057749;28;20119;-79
2022/01/14 05:37:03;;;;;;;20.88;11.32;;;5.40;99.90;;;;;;5074325;28;20256;-79
2022/01/14 05:39:31;;;;;;;19.83;11.52;;;5.40;99.90;;;;;;5074209;28;20066;-80
2022/01/14 05:41:58;;;;;;;34.15;15.15;;;5.50;99.90;;;;;;5074473;28;20417;-81
2022/01/14 05:44:24;;;;;;;25.23;13.25;;;5.40;99.90;;;;;;5073933;28;20052;-79
2022/01/14 05:46:54;;;;;;;26.73;11.95;;;5.40;99.90;;;;;;5057718;28;20037;-82
2022/01/14 05:49:25;;;;;;;27.98;15.80;;;5.40;99.90;;;;;;5057344;28;20105;-79
2022/01/14 05:51:52;;;;;;;40.08;19.88;;;5.50;99.90;;;;;;5058414;28;20105;-82
2022/01/14 05:54:19;;;;;;;30.15;17.00;;;5.50;99.90;;;;;;5074269;28;20487;-81
2022/01/14 05:56:45;;;;;;;38.33;16.83;;;5.50;99.90;;;;;;5057258;28;20041;-80
2022/01/14 05:59:11;;;;;;;35.05;19.27;;;5.40;99.90;;;;;;5057487;28;20048;-80
2022/01/14 06:01:38;;;;;;;31.70;18.00;;;5.40;99.90;;;;;;5057137;28;20063;-81
2022/01/14 06:04:05;;;;;;;46.40;21.52;;;5.40;99.90;;;;;;5056941;28;20044;-79
2022/01/14 06:06:32;;;;;;;42.63;20.45;;;5.40;99.90;;;;;;5073675;28;20040;-81
2022/01/14 06:08:58;;;;;;;39.13;19.75;;;5.30;99.90;;;;;;5073905;28;20406;-81
2022/01/14 06:11:24;;;;;;;34.35;18.88;;;5.30;99.90;;;;;;5073849;28;20045;-79
2022/01/14 06:13:50;;;;;;;35.20;16.33;;;5.30;99.90;;;;;;5073795;28;20495;-79
2022/01/14 06:16:16;;;;;;;40.97;20.27;;;5.30;99.90;;;;;;5056849;28;20055;-79
2022/01/14 06:18:42;;;;;;;38.40;17.80;;;5.50;99.90;;;;;;5040221;28;20044;-81
2022/01/14 06:21:08;;;;;;;35.55;19.00;;;5.40;99.90;;;;;;5073340;28;20055;-81
2022/01/14 06:23:34;;;;;;;39.90;19.38;;;5.40;99.90;;;;;;5072666;28;20135;-80
2022/01/14 06:26:00;;;;;;;35.20;18.27;;;5.30;99.90;;;;;;5073574;28;20063;-79
2022/01/14 06:28:26;;;;;;;22.92;13.63;;;5.40;99.90;;;;;;5056573;28;20048;-81
2022/01/14 06:30:52;;;;;;;33.10;15.43;;;5.40;99.90;;;;;;5056517;28;20045;-81
2022/01/14 06:33:18;;;;;;;33.72;16.65;;;5.40;99.90;;;;;;5056512;28;20076;-80
2022/01/14 06:35:44;;;;;;;35.42;13.95;;;5.40;99.90;;;;;;5056695;28;20049;-80
2022/01/14 06:38:10;;;;;;;23.55;10.18;;;5.50;99.90;;;;;;5056389;28;20079;-81
2022/01/14 06:40:37;;;;;;;33.60;14.65;;;5.60;99.90;;;;;;5056782;28;20506;-81
2022/01/14 06:43:04;;;;;;;25.25;11.25;;;5.50;99.90;;;;;;5073199;28;20376;-80
2022/01/14 06:45:30;;;;;;;30.48;10.32;;;5.60;99.90;;;;;;5056581;28;20057;-82
2022/01/14 06:47:57;;;;;;;25.48;11.68;;;5.60;99.90;;;;;;5072838;28;20063;-81
2022/01/14 06:50:23;;;;;;;17.33;9.80;;;5.60;99.90;;;;;;5072611;28;20053;-82
2022/01/14 06:52:49;;;;;;;13.90;7.75;;;5.60;99.90;;;;;;5056390;28;20506;-82
2022/01/14 06:55:14;;;;;;;23.55;9.63;;;5.60;99.90;;;;;;5073027;28;20091;-81
2022/01/14 06:57:40;;;;;;;13.60;5.70;;;5.70;99.90;;;;;;5039487;28;20043;-80
2022/01/14 07:00:17;;;;;;;23.83;10.20;;;5.70;99.90;;;;;;5039544;28;20040;-81
2022/01/14 07:02:43;;;;;;;23.80;9.13;;;5.70;99.90;;;;;;5056055;28;20036;-80
2022/01/14 07:05:10;;;;;;;27.60;10.73;;;5.70;99.90;;;;;;5072407;28;20040;-80
2022/01/14 07:07:36;;;;;;;21.05;10.05;;;5.70;99.90;;;;;;5072526;28;20044;-82
2022/01/14 07:10:05;;;;;;;24.60;10.43;;;5.80;99.90;;;;;;5056106;28;20048;-81
2022/01/14 07:12:40;;;;;;;22.85;10.18;;;5.70;99.90;;;;;;5072291;28;20044;-81
2022/01/14 07:15:10;;;;;;;27.05;10.32;;;5.60;99.90;;;;;;5072749;28;20044;-80
2022/01/14 07:17:37;;;;;;;29.88;11.25;;;5.60;99.90;;;;;;5056188;28;20045;-80
2022/01/14 07:20:07;;;;;;;30.20;10.60;;;5.60;99.90;;;;;;5056099;28;20052;-81
2022/01/14 07:22:34;;;;;;;22.58;9.07;;;5.60;99.90;;;;;;5055659;28;20055;-79
2022/01/14 07:24:59;;;;;;;24.17;9.27;;;5.60;99.90;;;;;;5071989;28;20059;-81
2022/01/14 07:27:26;;;;;;;31.30;9.23;;;5.60;99.90;;;;;;5072079;28;20411;-79
2022/01/14 07:29:52;;;;;;;24.45;8.60;;;5.60;99.90;;;;;;5055694;28;20048;-81
2022/01/14 07:32:18;;;;;;;22.17;8.68;;;5.60;99.90;;;;;;5055819;28;20487;-81
2022/01/14 07:34:45;;;;;;;16.48;6.90;;;5.60;99.90;;;;;;5055371;28;20051;-80
2022/01/14 07:37:11;;;;;;;27.15;8.63;;;5.70;99.90;;;;;;5055486;28;20123;-82
2022/01/14 07:39:37;;;;;;;28.38;8.40;;;5.70;99.90;;;;;;5038653;28;20131;-80
2022/01/14 07:42:03;;;;;;;16.10;6.57;;;5.90;99.90;;;;;;5055506;28;20044;-81
2022/01/14 07:44:29;;;;;;;25.08;7.93;;;5.70;99.90;;;;;;5071852;28;20063;-81
2022/01/14 07:46:55;;;;;;;17.85;7.00;;;5.80;99.90;;;;;;5072030;28;20048;-82
2022/01/14 07:49:21;;;;;;;17.20;7.10;;;5.70;99.90;;;;;;5055352;28;20040;-80
2022/01/14 07:51:46;;;;;;;19.83;7.65;;;5.70;99.90;;;;;;5071792;28;20051;-81
2022/01/14 07:54:12;;;;;;;22.27;8.45;;;5.70;99.90;;;;;;5055037;28;20398;-80
2022/01/14 07:56:45;;;;;;;11.75;4.95;;;5.70;99.90;;;;;;5071638;28;20043;-81
2022/01/14 07:59:12;;;;;;;21.50;7.00;;;5.70;99.90;;;;;;5055009;28;20040;-80
2022/01/14 08:01:39;;;;;;;15.05;5.88;;;5.80;99.90;;;;;;5055126;28;20043;-80
2022/01/14 08:04:05;;;;;;;17.52;5.80;;;5.80;99.90;;;;;;5071655;28;20044;-81
2022/01/14 08:06:34;;;;;;;15.70;6.35;;;5.80;99.90;;;;;;5071503;28;20051;-81
2022/01/14 08:09:00;;;;;;;25.65;6.90;;;5.80;99.90;;;;;;5071303;28;20037;-80
2022/01/14 08:11:26;;;;;;;23.85;6.97;;;5.90;99.90;;;;;;5054725;28;20044;-82
2022/01/14 08:13:52;;;;;;;14.45;5.43;;;6.00;99.90;;;;;;5071498;28;20403;-80
2022/01/14 08:16:17;;;;;;;19.40;7.28;;;5.80;99.90;;;;;;5071311;28;20052;-81
2022/01/14 08:18:43;;;;;;;23.27;6.65;;;5.90;99.90;;;;;;5054507;28;20102;-82
2022/01/14 08:21:09;;;;;;;18.52;6.72;;;5.90;99.90;;;;;;5071335;28;20067;-82
2022/01/14 08:23:35;;;;;;;18.85;7.25;;;5.80;99.90;;;;;;5054428;28;20056;-80
2022/01/14 08:26:00;;;;;;;17.83;7.05;;;5.90;99.90;;;;;;5054536;28;20495;-80
2022/01/14 08:28:27;;;;;;;19.70;7.85;;;5.90;99.90;;;;;;5037678;28;20127;-82
2022/01/14 08:30:53;;;;;;;15.40;6.88;;;6.00;99.90;;;;;;5070709;28;20048;-81
2022/01/14 08:33:19;;;;;;;14.70;5.30;;;5.90;99.90;;;;;;5059163;28;20513;-80
2022/01/14 08:35:46;;;;;;;13.55;5.63;;;6.10;99.90;;;;;;5070544;28;20037;-82
2022/01/14 08:38:12;;;;;;;21.25;7.72;;;6.10;99.90;;;;;;5070928;28;20048;-80
2022/01/14 08:40:39;;;;;;;17.15;5.82;;;6.00;99.90;;;;;;5037623;28;20052;-80
2022/01/14 08:43:05;;;;;;;12.82;5.28;;;6.00;99.90;;;;;;5071177;28;20044;-82
2022/01/14 08:45:31;;;;;;;17.17;5.35;;;6.10;99.90;;;;;;5054496;28;20048;-82
2022/01/14 08:47:57;;;;;;;15.35;4.88;;;6.10;99.90;;;;;;5057870;28;20391;-81
2022/01/14 08:50:31;;;;;;;17.45;5.78;;;6.10;99.90;;;;;;5074595;28;20044;-80
2022/01/14 08:52:59;;;;;;;9.70;2.35;;;6.20;99.90;;;;;;5074831;28;20229;-83
2022/01/14 08:55:25;;;;;;;18.25;5.03;;;6.20;99.90;;;;;;5074740;28;20048;-82
2022/01/14 08:57:52;;;;;;;9.75;3.78;;;6.20;99.90;;;;;;5058261;28;20161;-80
2022/01/14 09:00:19;;;;;;;15.15;4.93;;;6.20;99.90;;;;;;5073575;28;20055;-80
2022/01/14 09:02:45;;;;;;;20.25;5.20;;;6.30;99.90;;;;;;5074255;28;20068;-80
2022/01/14 09:05:11;;;;;;;11.65;4.30;;;6.30;99.90;;;;;;5073964;28;21401;-82
2022/01/14 09:07:38;;;;;;;14.65;4.63;;;6.30;99.90;;;;;;5073348;28;20495;-80
2022/01/14 09:10:05;;;;;;;10.30;3.90;;;6.30;99.90;;;;;;5054951;28;20127;-82
2022/01/14 09:12:31;;;;;;;11.13;4.03;;;6.40;99.90;;;;;;5056586;28;20048;-80
2022/01/14 09:14:57;;;;;;;7.97;3.28;;;6.40;99.90;;;;;;5056435;28;20079;-81
2022/01/14 09:17:23;;;;;;;15.63;3.65;;;6.50;99.90;;;;;;5070353;28;20137;-80
2022/01/14 09:19:49;;;;;;;16.73;5.80;;;6.50;99.90;;;;;;5040581;28;20487;-79
2022/01/14 09:22:17;;;;;;;16.45;4.53;;;6.50;99.90;;;;;;5040807;28;20522;-80
2022/01/14 09:24:44;;;;;;;13.88;3.78;;;6.60;99.90;;;;;;5074259;28;20097;-80
2022/01/14 09:27:11;;;;;;;11.63;3.83;;;6.60;99.90;;;;;;5073628;28;20052;-80
2022/01/14 09:29:36;;;;;;;12.63;3.38;;;6.60;99.90;;;;;;5057357;28;20135;-80
2022/01/14 09:32:02;;;;;;;11.95;3.50;;;6.70;99.90;;;;;;5056748;28;20064;-80
2022/01/14 09:34:28;;;;;;;13.05;2.80;;;6.70;99.90;;;;;;5057058;28;20040;-79
2022/01/14 09:36:54;;;;;;;14.55;4.15;;;6.70;99.90;;;;;;5073995;28;20055;-79
2022/01/14 09:39:20;;;;;;;10.82;3.45;;;6.90;99.90;;;;;;5056762;28;20156;-79
2022/01/14 09:41:47;;;;;;;17.02;3.80;;;6.70;99.90;;;;;;5057011;28;20045;-80
2022/01/14 09:44:17;;;;;;;18.30;3.80;;;6.70;99.90;;;;;;5073467;28;20394;-81
2022/01/14 09:46:43;;;;;;;11.27;2.10;;;6.80;99.90;;;;;;5039918;28;20128;-80
2022/01/14 09:49:13;;;;;;;18.05;3.55;;;6.80;99.90;;;;;;5074070;28;20530;-82
2022/01/14 09:51:38;;;;;;;12.02;3.90;;;6.80;99.90;;;;;;5072914;28;20330;-80
2022/01/14 09:54:06;;;;;;;16.15;3.25;;;7.00;99.90;;;;;;5056625;28;20495;-80
2022/01/14 09:56:32;;;;;;;15.40;2.95;;;6.90;99.90;;;;;;5073300;28;20128;-80
2022/01/14 09:58:58;;;;;;;11.52;2.65;;;6.90;99.90;;;;;;5073467;28;20460;-79
2022/01/14 10:01:24;;;;;;;15.82;2.70;;;7.00;99.90;;;;;;5052244;28;20050;-80
2022/01/14 10:04:02;;;;;;;10.50;2.10;;;7.00;99.90;;;;;;5051386;28;20041;-82
2022/01/14 10:06:37;;;;;;;18.98;3.08;;;7.10;99.90;;;;;;5067781;28;20087;-81
2022/01/14 10:09:16;;;;;;;16.55;2.67;;;7.00;99.90;;;;;;5072612;28;20452;-81
2022/01/14 10:11:44;;;;;;;16.98;4.18;;;7.00;99.90;;;;;;5073369;28;20063;-81
2022/01/14 10:14:16;;;;;;;15.70;2.55;;;7.00;99.90;;;;;;5056061;28;20113;-81
2022/01/14 10:16:43;;;;;;;19.05;3.30;;;7.00;99.90;;;;;;5056184;28;20074;-82
2022/01/14 10:19:29;;;;;;;5.25;1.67;;;7.00;99.90;;;;;;5056310;28;20095;-82
2022/01/14 10:21:56;;;;;;;13.40;2.60;;;7.00;99.90;;;;;;5072861;28;20045;-82
2022/01/14 10:24:24;;;;;;;11.07;2.40;;;6.90;99.90;;;;;;5072724;28;20067;-81
2022/01/14 10:26:56;;;;;;;17.45;2.80;;;7.00;99.90;;;;;;5072758;28;20079;-80
2022/01/14 10:29:34;;;;;;;15.40;3.35;;;7.00;99.90;;;;;;5072490;28;20080;-79
2022/01/14 10:32:01;;;;;;;17.45;3.17;;;7.10;99.90;;;;;;5072381;28;20567;-81
2022/01/14 10:34:28;;;;;;;12.00;2.25;;;7.10;99.90;;;;;;5055273;28;20046;-82
2022/01/14 10:37:16;;;;;;;20.23;4.25;;;7.00;99.90;;;;;;5072521;28;20036;-80
2022/01/14 10:39:43;;;;;;;11.07;2.67;;;7.00;99.90;;;;;;5072579;28;20076;-80
2022/01/14 10:42:30;;;;;;;16.65;3.13;;;6.90;99.90;;;;;;5054909;28;20041;-82
2022/01/14 10:45:14;;;;;;;12.85;3.03;;;7.00;99.90;;;;;;5056278;28;20487;-80
2022/01/14 10:47:40;;;;;;;12.75;2.63;;;7.00;99.90;;;;;;5070729;28;20055;-79
2022/01/14 10:50:06;;;;;;;14.75;3.28;;;7.00;99.90;;;;;;5038834;28;20048;-82
2022/01/14 10:52:32;;;;;;;20.52;3.95;;;7.00;99.90;;;;;;5071868;28;20379;-79
2022/01/14 10:54:59;;;;;;;12.30;3.13;;;7.00;99.90;;;;;;5055387;28;20041;-80
2022/01/14 10:57:29;;;;;;;16.95;2.97;;;7.00;99.90;;;;;;5072262;28;20044;-79
2022/01/14 10:59:57;;;;;;;14.13;2.40;;;7.10;99.90;;;;;;5072146;28;20541;-81
2022/01/14 11:02:42;;;;;;;12.68;3.35;;;7.10;99.90;;;;;;5071514;28;20051;-81
2022/01/14 11:05:09;;;;;;;9.85;2.75;;;7.10;99.90;;;;;;5055259;28;20198;-82
2022/01/14 11:07:36;;;;;;;7.93;2.80;;;7.10;99.90;;;;;;5072624;28;20453;-79
2022/01/14 11:10:20;;;;;;;19.55;4.13;;;7.10;99.90;;;;;;5071555;28;20044;-80
2022/01/14 11:12:47;;;;;;;16.08;2.90;;;7.10;99.90;;;;;;5055754;28;20130;-80
2022/01/14 11:15:14;;;;;;;16.33;4.40;;;7.10;99.90;;;;;;5072314;28;20123;-80
2022/01/14 11:17:41;;;;;;;23.40;4.47;;;7.10;99.90;;;;;;5072242;28;20094;-81
2022/01/14 11:20:09;;;;;;;22.48;4.03;;;7.10;99.90;;;;;;5072329;28;20090;-80
2022/01/14 11:25:20;;;;;;;14.30;3.92;;;7.10;99.90;;;;;;5072150;28;20491;-81
2022/01/14 11:27:51;;;;;;;11.05;2.63;;;7.20;99.90;;;;;;5039213;28;20086;-82
2022/01/14 11:30:17;;;;;;;10.15;3.10;;;7.20;99.90;;;;;;5071788;28;20059;-81
2022/01/14 11:32:56;;;;;;;20.08;4.72;;;7.30;99.90;;;;;;5055525;28;20546;-80
2022/01/14 11:35:25;;;;;;;16.45;3.88;;;7.20;99.90;;;;;;5072111;28;20495;-81
2022/01/14 11:37:51;;;;;;;10.75;2.90;;;7.20;99.90;;;;;;5071759;28;20076;-81
2022/01/14 11:40:18;;;;;;;13.95;2.85;;;7.20;99.90;;;;;;5071636;28;20052;-82
2022/01/14 11:42:43;;;;;;;18.65;3.80;;;7.20;99.90;;;;;;5038690;28;20044;-80
2022/01/14 11:45:17;;;;;;;22.35;3.42;;;7.20;99.90;;;;;;5055229;28;20546;-81
2022/01/14 11:47:45;;;;;;;20.95;4.25;;;7.30;99.90;;;;;;5055040;28;20040;-81
2022/01/14 11:50:19;;;;;;;13.40;3.20;;;7.20;99.90;;;;;;5071844;28;20048;-82
2022/01/14 11:52:47;;;;;;;19.75;2.92;;;7.30;99.90;;;;;;5055093;28;20047;-81
2022/01/14 11:55:24;;;;;;;18.58;3.95;;;7.30;99.90;;;;;;5072012;28;20517;-82
2022/01/14 11:57:55;;;;;;;11.90;3.00;;;7.40;99.90;;;;;;5071487;28;20044;-82
2022/01/14 12:00:30;;;;;;;16.85;3.28;;;7.30;99.90;;;;;;5054867;28;20083;-80
2022/01/14 12:03:06;;;;;;;25.90;3.58;;;7.30;99.90;;;;;;5054690;28;20054;-82
2022/01/14 12:05:32;;;;;;;20.55;3.70;;;7.30;99.90;;;;;;5071420;28;20037;-82
2022/01/14 12:08:04;;;;;;;17.30;2.85;;;7.40;99.90;;;;;;5071274;28;20079;-82
2022/01/14 12:10:32;;;;;;;16.55;3.50;;;7.40;99.90;;;;;;5071235;28;20094;-81
2022/01/14 12:16:18;;;;;;;13.45;1.98;;;7.40;99.90;;;;;;5071323;28;20139;-82
2022/01/14 12:19:00;;;;;;;15.65;2.97;;;7.30;99.90;;;;;;5054723;28;20052;-82
2022/01/14 12:21:44;;;;;;;8.85;3.05;;;7.30;99.90;;;;;;5054428;28;20060;-82
2022/01/14 12:24:19;;;;;;;25.95;4.68;;;7.30;99.90;;;;;;5071233;28;20407;-82
2022/01/14 12:27:12;;;;;;;17.35;3.60;;;7.30;99.90;;;;;;5054552;28;20130;-81
2022/01/14 12:29:39;;;;;;;22.25;3.53;;;7.30;99.90;;;;;;5071393;28;20083;-81
2022/01/14 12:32:09;;;;;;;18.85;3.83;;;7.30;99.90;;;;;;5071124;28;20044;-82
2022/01/14 12:34:37;;;;;;;17.13;2.83;;;7.40;99.90;;;;;;5052729;28;20131;-82
2022/01/14 12:37:04;;;;;;;20.40;3.65;;;7.30;99.90;;;;;;5070564;28;20033;-82
2022/01/14 12:39:30;;;;;;;21.55;3.80;;;7.30;99.90;;;;;;5071077;28;20049;-83
2022/01/14 12:41:58;;;;;;;14.63;3.22;;;7.30;99.90;;;;;;5037961;28;20045;-82
2022/01/14 12:44:24;;;;;;;19.02;2.97;;;7.40;99.90;;;;;;5071388;28;20053;-82
2022/01/14 12:47:06;;;;;;;15.43;4.78;;;7.30;99.90;;;;;;5070973;28;20053;-82
2022/01/14 12:49:40;;;;;;;17.35;3.42;;;7.30;99.90;;;;;;5054276;28;20037;-81
2022/01/14 12:52:13;;;;;;;25.58;5.13;;;7.30;99.90;;;;;;5071142;28;20054;-80
2022/01/14 12:54:46;;;;;;;21.60;4.13;;;7.30;99.90;;;;;;5054514;28;20052;-81
2022/01/14 12:57:17;;;;;;;17.17;4.20;;;7.30;99.90;;;;;;5055471;28;20040;-82
2022/01/14 12:59:45;;;;;;;27.52;4.90;;;7.30;99.90;;;;;;5070937;28;20044;-80
2022/01/14 13:02:18;;;;;;;25.88;4.90;;;7.40;99.90;;;;;;5071033;28;20048;-81
2022/01/14 13:04:43;;;;;;;19.60;3.78;;;7.30;99.90;;;;;;5071122;28;20049;-81
2022/01/14 13:07:11;;;;;;;31.25;5.70;;;7.30;99.90;;;;;;5071138;28;20051;-81
2022/01/14 13:09:40;;;;;;;30.95;5.47;;;7.30;99.90;;;;;;5070834;28;20048;-81
2022/01/14 13:12:06;;;;;;;21.65;4.55;;;7.30;99.90;;;;;;5054068;28;20081;-82
2022/01/14 13:14:38;;;;;;;26.80;5.00;;;7.30;99.90;;;;;;5054247;28;20102;-82
2022/01/14 13:17:09;;;;;;;17.50;4.15;;;7.30;99.90;;;;;;5070780;28;20040;-81
2022/01/14 13:19:36;;;;;;;19.45;4.85;;;7.20;99.90;;;;;;5070825;28;20049;-82
2022/01/14 13:22:08;;;;;;;13.98;2.67;;;7.10;99.90;;;;;;5070775;28;20037;-82